Avon, Utah
Current Conditions -  °F | °C
As of 3:15 PM on Friday 24 Oct 2014 (Local Time) from KBMC Reporting Station
Scattered Clouds Scattered Clouds  
Wind Chill: 74°   Ceiling: Unl
Heat Index: 74°   Visibility: 10mi
Dew Point: 29°   Wind: 5mph
Humidity: 19%   Direction: 230°SW
Pressure: 30.13"   Gusts: NA
Location:  41.5397°N, 111.856°W
Report Text: KBMC 242115Z AUTO 23004KT 10SM SCT018 23/M01 A3013 RMK AO1 T02321015
Loading
Personal Weather Stations






























Interactive Weather Map New forecast layout! Learn more

10-Day Weather Forecast

Advertisements
Track Severe Weather on mobile